createdAt,value
2018-08-17T00:01:45.588Z,99.90
2018-08-17T00:03:50.506Z,99.90
2018-08-17T00:05:55.409Z,99.90
2018-08-17T00:08:00.426Z,99.90
2018-08-17T00:10:05.340Z,99.90
2018-08-17T00:12:10.249Z,99.90
2018-08-17T00:14:15.117Z,99.90
2018-08-17T00:16:19.917Z,99.90
2018-08-17T00:18:24.722Z,99.90
2018-08-17T00:20:29.681Z,99.90
2018-08-17T00:22:34.543Z,99.90
2018-08-17T00:24:39.412Z,99.90
2018-08-17T00:26:45.078Z,99.90
2018-08-17T00:28:49.852Z,99.90
2018-08-17T00:30:54.717Z,99.90
2018-08-17T00:32:59.631Z,99.90
2018-08-17T00:35:04.516Z,99.90
2018-08-17T00:37:09.414Z,99.90
2018-08-17T00:39:14.344Z,99.90
2018-08-17T00:41:19.618Z,99.90
2018-08-17T00:43:24.402Z,99.90
2018-08-17T00:45:29.341Z,99.90
2018-08-17T00:47:34.240Z,99.90
2018-08-17T00:49:39.196Z,99.90
2018-08-17T00:51:44.014Z,99.90
2018-08-17T00:53:48.798Z,99.90
2018-08-17T00:55:53.658Z,99.90
2018-08-17T00:57:58.719Z,99.90
2018-08-17T01:00:03.580Z,99.90
2018-08-17T01:02:10.893Z,99.90
2018-08-17T01:04:15.794Z,99.90
2018-08-17T01:06:20.590Z,99.90
2018-08-17T01:08:25.506Z,99.90
2018-08-17T01:10:30.263Z,99.90
2018-08-17T01:12:35.077Z,99.90
2018-08-17T01:14:39.864Z,99.90
2018-08-17T01:16:44.900Z,99.90
2018-08-17T01:18:49.718Z,99.90
2018-08-17T01:20:54.507Z,99.90
2018-08-17T01:22:59.760Z,99.70
2018-08-17T01:25:05.393Z,99.50
2018-08-17T01:27:10.598Z,99.20
2018-08-17T01:29:15.402Z,99.30
2018-08-17T01:31:20.334Z,99.50
2018-08-17T01:33:25.122Z,99.80
2018-08-17T01:35:29.961Z,99.90
2018-08-17T01:37:34.819Z,99.90
2018-08-17T01:39:40.091Z,99.90
2018-08-17T01:41:45.053Z,99.90
2018-08-17T01:43:49.892Z,99.90
2018-08-17T01:45:54.844Z,99.90
2018-08-17T01:48:00.021Z,99.90
2018-08-17T01:50:05.492Z,99.90
2018-08-17T01:52:10.329Z,99.90
2018-08-17T01:54:15.336Z,99.90
2018-08-17T01:56:20.147Z,99.90
2018-08-17T01:58:24.925Z,99.90
2018-08-17T02:00:29.793Z,99.90
2018-08-17T02:02:34.645Z,99.90
2018-08-17T02:04:39.417Z,99.90
2018-08-17T02:06:44.343Z,99.90
2018-08-17T02:08:49.200Z,99.90
2018-08-17T02:10:54.027Z,99.90
2018-08-17T02:12:59.058Z,99.90
2018-08-17T02:15:03.911Z,99.90
2018-08-17T02:17:09.014Z,99.90
2018-08-17T02:19:13.981Z,99.90
2018-08-17T02:21:18.841Z,99.90
2018-08-17T02:23:23.601Z,99.90
2018-08-17T02:25:28.391Z,99.90
2018-08-17T02:27:33.314Z,99.90
2018-08-17T02:29:38.119Z,99.90
2018-08-17T02:31:42.978Z,99.90
2018-08-17T02:33:47.797Z,99.90
2018-08-17T02:35:52.632Z,99.90
2018-08-17T02:37:57.613Z,99.90
2018-08-17T02:40:02.487Z,99.90
2018-08-17T02:42:07.791Z,99.90
2018-08-17T02:44:12.672Z,99.90
2018-08-17T02:46:17.631Z,99.90
2018-08-17T02:48:22.424Z,99.90
2018-08-17T02:50:27.248Z,99.90
2018-08-17T02:52:32.016Z,99.90
2018-08-17T02:54:36.781Z,99.90
2018-08-17T02:56:41.929Z,99.90
2018-08-17T02:58:46.648Z,99.90
2018-08-17T03:00:57.066Z,99.90
2018-08-17T03:03:01.980Z,99.90
2018-08-17T03:05:07.013Z,99.90
2018-08-17T03:07:11.744Z,99.90
2018-08-17T03:09:16.832Z,99.90
2018-08-17T03:11:21.809Z,99.90
2018-08-17T03:13:26.619Z,99.90
2018-08-17T03:15:31.487Z,99.90
2018-08-17T03:17:36.277Z,99.90
2018-08-17T03:19:41.045Z,99.90
2018-08-17T03:21:46.204Z,99.90
2018-08-17T03:23:50.964Z,99.90
2018-08-17T03:25:55.724Z,99.90
2018-08-17T03:28:00.630Z,99.90
2018-08-17T03:30:05.976Z,99.90
2018-08-17T03:32:10.869Z,99.90
2018-08-17T03:34:15.991Z,99.90
2018-08-17T03:36:20.806Z,99.90
2018-08-17T03:38:25.637Z,99.90
2018-08-17T03:40:30.499Z,99.90
2018-08-17T03:42:35.300Z,99.90
2018-08-17T03:44:40.075Z,99.90
2018-08-17T03:46:45.858Z,99.90
2018-08-17T03:48:50.787Z,99.90
2018-08-17T03:50:55.663Z,99.90
2018-08-17T03:53:00.595Z,99.90
2018-08-17T03:55:05.597Z,99.90
2018-08-17T03:57:10.378Z,99.90
2018-08-17T03:59:15.306Z,99.90
2018-08-17T04:01:20.462Z,99.90
2018-08-17T04:03:25.289Z,99.90
2018-08-17T04:05:30.120Z,99.90
2018-08-17T04:07:34.905Z,99.90
2018-08-17T04:09:39.713Z,99.90
2018-08-17T04:11:44.511Z,99.90
2018-08-17T04:13:49.428Z,99.90
2018-08-17T04:15:54.805Z,99.90
2018-08-17T04:17:59.814Z,99.90
2018-08-17T04:20:05.065Z,99.90
2018-08-17T04:22:10.013Z,99.90
2018-08-17T04:24:14.877Z,99.90
2018-08-17T04:26:19.835Z,99.90
2018-08-17T04:28:25.051Z,99.90
2018-08-17T04:30:30.252Z,99.90
2018-08-17T04:32:35.256Z,99.90
2018-08-17T04:34:40.090Z,99.90
2018-08-17T04:36:45.026Z,99.90
2018-08-17T04:38:50.426Z,99.90
2018-08-17T04:40:55.334Z,99.90
2018-08-17T04:43:06.690Z,99.90
2018-08-17T04:45:11.676Z,99.90
2018-08-17T04:47:16.422Z,99.90
2018-08-17T04:49:21.428Z,99.90
2018-08-17T04:51:26.268Z,99.90
2018-08-17T04:53:31.245Z,99.90
2018-08-17T04:55:36.150Z,99.90
2018-08-17T04:57:41.177Z,99.90
2018-08-17T04:59:46.019Z,99.90
2018-08-17T05:01:50.857Z,99.90
2018-08-17T05:03:55.760Z,99.90
2018-08-17T05:06:00.759Z,99.90
2018-08-17T05:08:05.613Z,99.90
2018-08-17T05:10:10.626Z,99.90
2018-08-17T05:12:18.380Z,99.90
2018-08-17T05:14:23.264Z,99.90
2018-08-17T05:16:29.238Z,99.90
2018-08-17T05:18:34.277Z,99.90
2018-08-17T05:20:39.172Z,99.90
2018-08-17T05:22:44.826Z,99.90
2018-08-17T05:24:49.681Z,99.90
2018-08-17T05:26:54.658Z,99.90
2018-08-17T05:28:59.527Z,99.90
2018-08-17T05:31:13.724Z,99.90
2018-08-17T05:33:22.165Z,99.90
2018-08-17T05:35:27.065Z,99.90
2018-08-17T05:37:31.898Z,99.90
2018-08-17T05:39:36.777Z,99.90
2018-08-17T05:41:41.603Z,99.90
2018-08-17T05:43:46.485Z,99.90
2018-08-17T05:45:51.300Z,99.90
2018-08-17T05:47:56.337Z,99.90
2018-08-17T05:50:01.173Z,99.90
2018-08-17T05:52:06.261Z,99.90
2018-08-17T05:54:11.072Z,99.90
2018-08-17T05:56:16.239Z,99.90
2018-08-17T05:58:21.088Z,99.90
2018-08-17T06:00:26.457Z,99.90
2018-08-17T06:02:31.518Z,99.90
2018-08-17T06:04:36.413Z,99.90
2018-08-17T06:06:41.498Z,99.90
2018-08-17T06:08:46.435Z,99.90
2018-08-17T06:10:51.404Z,99.90
2018-08-17T06:12:56.221Z,99.90
2018-08-17T06:15:01.084Z,99.90
2018-08-17T06:17:06.132Z,99.90
2018-08-17T06:19:12.221Z,99.90
2018-08-17T06:21:17.659Z,99.90
2018-08-17T06:23:22.646Z,99.90
2018-08-17T06:25:28.392Z,99.90
2018-08-17T06:27:33.536Z,99.90
2018-08-17T06:29:38.723Z,99.90
2018-08-17T06:31:45.176Z,99.90
2018-08-17T06:33:50.145Z,99.90
2018-08-17T06:35:55.465Z,99.90
2018-08-17T06:38:00.712Z,99.90
2018-08-17T06:40:06.161Z,99.90
2018-08-17T06:42:11.515Z,99.90
2018-08-17T06:44:16.876Z,99.90
2018-08-17T06:46:22.177Z,99.90
2018-08-17T06:48:27.692Z,99.90
2018-08-17T06:50:33.350Z,99.90
2018-08-17T06:52:39.106Z,99.90
2018-08-17T06:54:44.322Z,99.90
2018-08-17T06:56:49.674Z,99.90
2018-08-17T06:58:54.624Z,99.90
2018-08-17T07:01:00.588Z,99.90
2018-08-17T07:03:13.928Z,99.90
2018-08-17T07:05:19.292Z,99.90
2018-08-17T07:07:24.863Z,99.90
2018-08-17T07:09:30.372Z,99.90
2018-08-17T07:11:35.225Z,99.90
2018-08-17T07:13:41.752Z,99.90
2018-08-17T07:15:47.459Z,99.90
2018-08-17T07:17:53.376Z,99.90
2018-08-17T07:19:58.380Z,99.90
2018-08-17T07:22:03.614Z,99.90
2018-08-17T07:24:08.852Z,99.90
2018-08-17T07:26:14.556Z,99.90
2018-08-17T07:28:19.795Z,99.90
2018-08-17T07:30:25.052Z,99.90
2018-08-17T07:32:30.433Z,99.90
2018-08-17T07:34:36.426Z,99.90
2018-08-17T07:36:42.061Z,99.90
2018-08-17T07:38:49.150Z,99.90
2018-08-17T07:40:54.075Z,99.90
2018-08-17T07:42:59.269Z,99.90
2018-08-17T07:45:22.179Z,99.90
2018-08-17T07:47:27.249Z,99.90
2018-08-17T07:49:32.198Z,99.90
2018-08-17T07:51:37.139Z,99.90
2018-08-17T07:53:41.961Z,99.90
2018-08-17T07:55:46.971Z,99.90
2018-08-17T07:57:51.951Z,99.90
2018-08-17T07:59:57.544Z,99.90
2018-08-17T08:02:03.066Z,99.90
2018-08-17T08:04:09.088Z,99.90
2018-08-17T08:06:14.952Z,99.90
2018-08-17T08:08:20.020Z,99.90
2018-08-17T08:10:25.228Z,99.90
2018-08-17T08:12:30.260Z,99.90
2018-08-17T08:14:34.977Z,99.90
2018-08-17T08:16:40.211Z,99.90
2018-08-17T08:18:45.437Z,99.90
2018-08-17T08:20:50.399Z,99.90
2018-08-17T08:23:33.745Z,99.90
2018-08-17T08:25:38.903Z,99.90
2018-08-17T08:29:42.281Z,99.90
2018-08-17T08:31:47.183Z,99.90
2018-08-17T08:33:52.476Z,99.90
2018-08-17T08:35:57.413Z,99.90
2018-08-17T08:38:02.265Z,99.90
2018-08-17T08:40:07.515Z,99.90
2018-08-17T08:42:12.611Z,99.90
2018-08-17T08:44:17.463Z,99.90
2018-08-17T08:46:22.313Z,99.90
2018-08-17T08:48:27.278Z,99.90
2018-08-17T08:50:32.199Z,99.90
2018-08-17T08:52:36.982Z,99.90
2018-08-17T08:54:42.069Z,99.90
2018-08-17T08:56:46.881Z,99.90
2018-08-17T08:58:51.791Z,99.90
2018-08-17T09:00:56.968Z,99.90
2018-08-17T09:03:01.997Z,99.90
2018-08-17T09:05:07.067Z,99.90
2018-08-17T09:07:11.915Z,99.90
2018-08-17T09:09:16.848Z,99.90
2018-08-17T09:11:21.757Z,99.90
2018-08-17T09:13:26.682Z,99.90
2018-08-17T09:15:31.659Z,99.90
2018-08-17T09:17:36.872Z,99.90
2018-08-17T09:19:41.884Z,99.90
2018-08-17T09:21:46.823Z,99.90
2018-08-17T09:23:51.752Z,99.90
2018-08-17T09:25:56.646Z,99.90
2018-08-17T09:28:01.441Z,99.90
2018-08-17T09:30:10.103Z,99.90
2018-08-17T09:32:15.081Z,99.90
2018-08-17T09:34:19.917Z,99.90
2018-08-17T09:36:25.343Z,99.90
2018-08-17T09:40:42.354Z,99.90
2018-08-17T09:42:47.339Z,99.90
2018-08-17T09:44:52.327Z,99.90
2018-08-17T09:46:58.884Z,99.90
2018-08-17T09:49:03.859Z,99.90
2018-08-17T09:51:08.680Z,99.90
2018-08-17T09:53:16.353Z,99.90
2018-08-17T09:55:21.140Z,99.90
2018-08-17T09:57:25.919Z,99.90
2018-08-17T09:59:30.871Z,99.90
2018-08-17T10:01:40.987Z,99.90
2018-08-17T10:03:49.906Z,99.90
2018-08-17T10:06:00.515Z,99.90
2018-08-17T10:08:10.570Z,99.90
2018-08-17T10:10:19.794Z,99.90
2018-08-17T10:12:24.727Z,99.90
2018-08-17T10:14:29.644Z,99.90
2018-08-17T10:16:34.476Z,99.90
2018-08-17T10:18:44.932Z,99.90
2018-08-17T10:20:50.110Z,99.90
2018-08-17T10:22:55.683Z,99.90
2018-08-17T10:25:08.770Z,99.90
2018-08-17T10:27:13.654Z,99.90
2018-08-17T10:29:19.435Z,99.90
2018-08-17T10:31:24.301Z,99.90
2018-08-17T10:33:29.208Z,99.90
2018-08-17T10:35:35.043Z,99.90
2018-08-17T10:37:39.886Z,99.90
2018-08-17T10:39:55.775Z,99.90
2018-08-17T10:42:00.729Z,99.90
2018-08-17T10:44:06.264Z,99.90
2018-08-17T10:46:11.773Z,99.90
2018-08-17T10:48:17.500Z,99.90
2018-08-17T10:50:25.265Z,99.90
2018-08-17T10:52:30.258Z,99.90
2018-08-17T10:54:35.326Z,99.90
2018-08-17T10:56:40.305Z,99.90
2018-08-17T10:58:45.172Z,99.90
2018-08-17T11:00:50.051Z,99.90
2018-08-17T11:02:55.231Z,99.90
2018-08-17T11:05:00.054Z,99.90
2018-08-17T11:07:04.845Z,99.90
2018-08-17T11:09:11.185Z,99.90
2018-08-17T11:11:15.977Z,99.90
2018-08-17T11:13:20.965Z,99.90
2018-08-17T11:15:25.959Z,99.90
2018-08-17T11:17:30.840Z,99.90
2018-08-17T11:19:35.722Z,99.90
2018-08-17T11:21:40.899Z,99.90
2018-08-17T11:23:45.803Z,99.90
2018-08-17T11:25:50.624Z,99.90
2018-08-17T11:27:55.572Z,99.90
2018-08-17T11:30:00.476Z,99.90
2018-08-17T11:32:05.396Z,99.90
2018-08-17T11:34:10.438Z,99.90
2018-08-17T11:36:15.371Z,99.90
2018-08-17T11:38:20.585Z,99.90
2018-08-17T11:40:25.403Z,99.90
2018-08-17T11:42:40.825Z,99.90
2018-08-17T11:44:45.793Z,99.90
2018-08-17T11:46:51.030Z,99.90
2018-08-17T11:48:55.805Z,99.90
2018-08-17T11:51:00.633Z,99.90
2018-08-17T11:53:05.889Z,99.90
2018-08-17T11:55:10.650Z,99.90
2018-08-17T11:57:15.503Z,99.90
2018-08-17T11:59:20.400Z,99.90
2018-08-17T12:01:27.324Z,99.90
2018-08-17T12:03:32.228Z,99.90
2018-08-17T12:05:37.133Z,99.90
2018-08-17T12:09:52.791Z,99.90
2018-08-17T12:11:57.704Z,99.90
2018-08-17T12:14:02.671Z,99.90
2018-08-17T12:16:11.127Z,99.90
2018-08-17T12:18:16.137Z,99.90
2018-08-17T12:20:21.362Z,99.90
2018-08-17T12:22:26.278Z,99.90
2018-08-17T12:24:32.111Z,99.90
2018-08-17T12:26:42.073Z,99.90
2018-08-17T12:28:47.466Z,99.90
2018-08-17T12:30:52.407Z,99.90
2018-08-17T12:32:57.172Z,99.90
2018-08-17T12:35:02.170Z,99.90
2018-08-17T12:37:07.210Z,99.90
2018-08-17T12:39:12.124Z,99.90
2018-08-17T12:41:16.882Z,99.90
2018-08-17T12:43:25.559Z,99.90
2018-08-17T12:45:30.383Z,99.90
2018-08-17T12:47:35.622Z,99.90
2018-08-17T12:49:40.813Z,99.90
2018-08-17T12:51:45.715Z,99.20
2018-08-17T12:53:50.515Z,99.70
2018-08-17T12:55:55.265Z,99.20
2018-08-17T12:58:00.100Z,98.90
2018-08-17T13:00:05.831Z,98.10
2018-08-17T13:02:10.708Z,98.00
2018-08-17T13:04:15.457Z,97.90
2018-08-17T13:06:20.272Z,98.20
2018-08-17T13:08:25.328Z,98.50
2018-08-17T13:10:30.785Z,98.20
2018-08-17T13:12:35.553Z,98.10
2018-08-17T13:14:40.509Z,98.30
2018-08-17T13:16:45.669Z,97.20
2018-08-17T13:18:52.134Z,97.20
2018-08-17T13:20:57.053Z,97.30
2018-08-17T13:23:01.872Z,97.50
2018-08-17T13:25:06.927Z,95.20
2018-08-17T13:27:12.544Z,94.80
2018-08-17T13:29:17.366Z,94.90
2018-08-17T13:31:22.277Z,93.50
2018-08-17T13:33:27.250Z,93.30
2018-08-17T13:35:32.470Z,93.70
2018-08-17T13:37:37.326Z,91.90
2018-08-17T13:39:42.290Z,90.70
2018-08-17T13:41:47.182Z,90.30
2018-08-17T13:43:52.651Z,90.80
2018-08-17T13:45:57.783Z,90.90
2018-08-17T13:48:02.768Z,90.50
2018-08-17T13:50:09.120Z,90.80
2018-08-17T13:52:14.125Z,85.90
2018-08-17T13:54:18.988Z,87.10
2018-08-17T13:56:23.772Z,87.00
2018-08-17T13:58:28.662Z,86.00
2018-08-17T14:00:33.504Z,85.70
2018-08-17T14:02:38.419Z,86.70
2018-08-17T14:04:43.541Z,87.90
2018-08-17T14:06:48.467Z,88.20
2018-08-17T14:08:53.302Z,88.10
2018-08-17T14:10:58.253Z,89.10
2018-08-17T14:13:03.076Z,87.00
2018-08-17T14:15:09.849Z,86.80
2018-08-17T14:17:14.891Z,87.40
2018-08-17T14:23:56.215Z,86.70
2018-08-17T14:26:04.347Z,86.00
2018-08-17T14:28:20.840Z,86.30
2018-08-17T14:30:26.234Z,85.80
2018-08-17T14:32:34.406Z,85.00
2018-08-17T14:34:39.846Z,85.70
2018-08-17T14:36:44.857Z,83.80
2018-08-17T14:38:50.010Z,83.10
2018-08-17T14:40:54.863Z,82.60
2018-08-17T14:43:03.285Z,83.30
2018-08-17T14:45:09.084Z,82.50
2018-08-17T14:47:13.878Z,81.90
2018-08-17T14:49:18.770Z,81.30
2018-08-17T14:51:23.659Z,82.40
2018-08-17T14:53:28.793Z,81.60
2018-08-17T14:55:33.673Z,81.50
2018-08-17T14:57:38.643Z,80.20
2018-08-17T14:59:43.445Z,80.50
2018-08-17T15:01:48.581Z,81.00
2018-08-17T15:03:53.490Z,79.80
2018-08-17T15:06:00.823Z,79.10
2018-08-17T15:08:05.846Z,78.80
2018-08-17T15:10:12.892Z,78.90
2018-08-17T15:12:17.694Z,78.30
2018-08-17T15:14:22.913Z,78.00
2018-08-17T15:16:27.740Z,77.60
2018-08-17T15:18:32.462Z,77.50
2018-08-17T15:20:37.279Z,76.80
2018-08-17T15:22:42.402Z,76.20
2018-08-17T15:24:47.182Z,75.80
2018-08-17T15:26:52.148Z,75.90
2018-08-17T15:28:56.932Z,73.60
2018-08-17T15:31:01.683Z,74.10
2018-08-17T15:33:06.885Z,73.40
2018-08-17T15:35:11.999Z,74.00
2018-08-17T15:37:17.558Z,74.40
2018-08-17T15:39:22.680Z,74.90
2018-08-17T15:41:27.549Z,71.50
2018-08-17T15:43:32.873Z,70.60
2018-08-17T15:45:37.961Z,70.00
2018-08-17T15:47:42.917Z,70.30
2018-08-17T15:50:09.362Z,70.00
2018-08-17T15:52:14.252Z,69.20
2018-08-17T15:54:19.139Z,69.10
2018-08-17T15:56:24.065Z,69.20
2018-08-17T15:58:30.352Z,69.70
2018-08-17T16:00:35.929Z,69.70
2018-08-17T16:02:40.832Z,68.80
2018-08-17T16:04:45.619Z,66.80
2018-08-17T16:06:50.443Z,66.00
2018-08-17T16:08:55.191Z,60.90
2018-08-17T16:10:59.943Z,62.00
2018-08-17T16:13:04.970Z,62.10
2018-08-17T16:15:10.620Z,62.60
2018-08-17T16:17:15.678Z,62.20
2018-08-17T16:19:20.711Z,63.20
2018-08-17T16:21:25.779Z,64.30
2018-08-17T16:23:30.742Z,63.40
2018-08-17T16:25:35.720Z,63.50
2018-08-17T16:27:41.287Z,63.50
2018-08-17T16:29:46.433Z,62.80
2018-08-17T16:31:51.599Z,63.20
2018-08-17T16:33:56.468Z,63.40
2018-08-17T16:36:01.480Z,64.10
2018-08-17T16:38:07.016Z,65.10
2018-08-17T16:40:12.218Z,64.40
2018-08-17T16:42:25.576Z,63.20
2018-08-17T16:44:30.636Z,63.60
2018-08-17T16:46:36.273Z,62.50
2018-08-17T16:48:41.894Z,62.00
2018-08-17T16:50:47.063Z,61.10
2018-08-17T16:52:52.025Z,62.00
2018-08-17T16:54:56.941Z,61.10
2018-08-17T16:57:01.900Z,61.10
2018-08-17T16:59:07.262Z,61.60
2018-08-17T17:01:12.128Z,60.90
2018-08-17T17:03:28.960Z,61.80
2018-08-17T17:05:33.799Z,62.30
2018-08-17T17:07:38.573Z,61.10
2018-08-17T17:09:43.446Z,61.20
2018-08-17T17:11:48.424Z,60.80
2018-08-17T17:13:53.328Z,59.30
2018-08-17T17:15:58.134Z,58.90
2018-08-17T17:18:09.285Z,58.10
2018-08-17T17:20:14.233Z,57.90
2018-08-17T17:22:19.749Z,57.50
2018-08-17T17:24:25.483Z,57.20
2018-08-17T17:26:34.198Z,57.70
2018-08-17T17:28:39.150Z,58.40
2018-08-17T17:30:50.759Z,58.50
2018-08-17T17:32:55.752Z,58.70
2018-08-17T17:35:00.632Z,59.50
2018-08-17T17:37:07.517Z,59.90
2018-08-17T17:39:14.105Z,61.60
2018-08-17T17:41:24.858Z,62.20
2018-08-17T17:43:30.226Z,62.50
2018-08-17T17:45:35.470Z,63.40
2018-08-17T17:47:43.137Z,63.20
2018-08-17T17:49:48.512Z,63.10
2018-08-17T17:51:53.598Z,61.70
2018-08-17T17:53:58.523Z,61.60
2018-08-17T17:56:03.610Z,63.00
2018-08-17T17:58:10.179Z,62.60
2018-08-17T18:00:15.048Z,62.50
2018-08-17T18:02:20.127Z,62.80
2018-08-17T18:04:25.191Z,63.30
2018-08-17T18:06:30.187Z,63.70
2018-08-17T18:08:35.626Z,62.30
2018-08-17T18:10:40.804Z,62.50
2018-08-17T18:12:45.739Z,63.40
2018-08-17T18:14:51.657Z,63.20
2018-08-17T18:16:56.839Z,63.30
2018-08-17T18:19:01.967Z,63.30
2018-08-17T18:21:07.153Z,63.70
2018-08-17T18:23:12.186Z,63.60
2018-08-17T18:25:17.785Z,63.10
2018-08-17T18:27:22.828Z,63.90
2018-08-17T18:29:27.894Z,65.00
2018-08-17T18:31:32.971Z,64.60
2018-08-17T18:33:38.334Z,64.80
2018-08-17T18:42:14.744Z,65.80
2018-08-17T18:44:21.266Z,66.80
2018-08-17T18:46:26.600Z,66.50
2018-08-17T18:48:31.584Z,67.00
2018-08-17T18:50:36.477Z,67.70
2018-08-17T18:52:41.663Z,68.00
2018-08-17T18:54:46.915Z,67.50
2018-08-17T18:56:51.806Z,68.60
2018-08-17T18:58:56.918Z,68.60
2018-08-17T19:01:01.952Z,69.50
2018-08-17T19:03:07.630Z,69.10
2018-08-17T19:05:13.213Z,69.10
2018-08-17T19:07:18.133Z,69.40
2018-08-17T19:09:23.566Z,69.30
2018-08-17T19:11:29.579Z,69.90
2018-08-17T19:13:34.874Z,70.30
2018-08-17T19:15:45.480Z,70.80
2018-08-17T19:17:51.206Z,71.20
2018-08-17T19:19:58.187Z,71.90
2018-08-17T19:22:03.256Z,72.20
2018-08-17T19:24:12.523Z,72.80
2018-08-17T19:26:18.015Z,73.70
2018-08-17T19:28:23.018Z,73.60
2018-08-17T19:30:34.285Z,73.70
2018-08-17T19:32:44.618Z,74.00
2018-08-17T19:34:56.325Z,74.20
2018-08-17T19:37:04.001Z,74.50
2018-08-17T19:41:35.561Z,74.60
2018-08-17T19:43:45.777Z,75.70
2018-08-17T19:45:55.298Z,77.10
2018-08-17T19:48:05.508Z,76.40
2018-08-17T19:50:14.587Z,77.50
2018-08-17T19:52:21.675Z,78.20
2018-08-17T19:54:29.902Z,78.40
2018-08-17T19:56:36.344Z,78.90
2018-08-17T19:58:44.346Z,79.20
2018-08-17T20:00:51.838Z,80.20
2018-08-17T20:02:59.167Z,81.10
2018-08-17T20:05:06.016Z,81.80
2018-08-17T20:07:12.123Z,82.20
2018-08-17T20:09:17.635Z,83.00
2018-08-17T20:11:24.682Z,83.70
2018-08-17T20:13:30.162Z,85.00
2018-08-17T20:15:39.286Z,85.00
2018-08-17T20:17:54.140Z,85.70
2018-08-17T20:20:00.994Z,86.20
2018-08-17T20:22:13.091Z,87.00
2018-08-17T20:24:18.290Z,87.40
2018-08-17T20:26:24.962Z,87.90
2018-08-17T20:28:33.984Z,88.80
2018-08-17T20:30:43.030Z,89.50
2018-08-17T20:32:52.897Z,89.90
2018-08-17T20:35:03.546Z,90.00
2018-08-17T20:37:09.682Z,90.50
2018-08-17T20:39:16.490Z,90.30
2018-08-17T20:41:24.970Z,90.70
2018-08-17T20:43:34.175Z,91.20
2018-08-17T20:45:42.432Z,91.20
2018-08-17T20:47:49.323Z,91.30
2018-08-17T20:49:57.481Z,91.40
2018-08-17T20:52:04.741Z,91.50
2018-08-17T20:54:11.126Z,91.60
2018-08-17T20:56:17.650Z,91.90
2018-08-17T20:58:24.415Z,91.80
2018-08-17T21:00:30.609Z,92.00
2018-08-17T21:02:35.749Z,92.50
2018-08-17T21:04:41.662Z,92.80
2018-08-17T21:06:47.486Z,93.10
2018-08-17T21:08:52.683Z,93.30
2018-08-17T21:10:58.160Z,93.30
2018-08-17T21:13:03.311Z,93.50
2018-08-17T21:15:11.313Z,93.90
2018-08-17T21:17:19.304Z,94.10
2018-08-17T21:19:31.428Z,94.50
2018-08-17T21:21:37.547Z,94.50
2018-08-17T21:23:42.609Z,94.70
2018-08-17T21:25:50.627Z,94.60
2018-08-17T21:27:55.709Z,94.40
2018-08-17T21:30:01.396Z,94.20
2018-08-17T21:32:06.439Z,94.60
2018-08-17T21:34:11.657Z,94.50
2018-08-17T21:36:16.849Z,94.30
2018-08-17T21:38:22.000Z,94.40
2018-08-17T21:40:29.880Z,94.60
2018-08-17T21:42:38.041Z,94.70
2018-08-17T21:44:43.603Z,94.60
2018-08-17T21:47:09.507Z,94.20
2018-08-17T21:49:14.528Z,94.30
2018-08-17T21:51:19.958Z,94.10
2018-08-17T21:53:25.828Z,94.30
2018-08-17T21:55:35.717Z,94.40
2018-08-17T21:57:45.174Z,94.30
2018-08-17T21:59:52.115Z,94.30
2018-08-17T22:01:59.417Z,94.20
2018-08-17T22:04:05.840Z,94.20
2018-08-17T22:06:10.933Z,94.10
2018-08-17T22:08:15.855Z,94.10
2018-08-17T22:10:20.819Z,94.20
2018-08-17T22:12:26.055Z,94.30
2018-08-17T22:14:31.037Z,94.30
2018-08-17T22:16:36.334Z,94.50
2018-08-17T22:18:41.365Z,94.60
2018-08-17T22:20:46.573Z,94.70
2018-08-17T22:22:51.622Z,94.80
2018-08-17T22:24:58.024Z,95.00
2018-08-17T22:27:03.309Z,94.90
2018-08-17T22:29:08.208Z,94.90
2018-08-17T22:31:13.201Z,95.10
2018-08-17T22:33:18.105Z,95.10
2018-08-17T22:35:23.249Z,95.50
2018-08-17T22:37:28.123Z,95.40
2018-08-17T22:39:33.098Z,95.50
2018-08-17T22:41:38.128Z,95.70
2018-08-17T22:43:43.073Z,95.70
2018-08-17T22:45:49.189Z,96.30
2018-08-17T22:47:54.716Z,96.20
2018-08-17T22:50:01.217Z,95.90
2018-08-17T22:52:06.639Z,96.30
2018-08-17T22:54:11.829Z,96.30
2018-08-17T22:56:17.041Z,95.90
2018-08-17T22:58:22.042Z,96.00
2018-08-17T23:00:29.251Z,96.30
2018-08-17T23:02:34.383Z,96.50
2018-08-17T23:04:39.583Z,96.60
2018-08-17T23:06:44.826Z,96.70
2018-08-17T23:08:50.552Z,96.80
2018-08-17T23:10:55.620Z,96.90
2018-08-17T23:13:00.583Z,96.80
2018-08-17T23:15:07.505Z,97.00
2018-08-17T23:17:12.670Z,97.00
2018-08-17T23:19:17.617Z,97.20
2018-08-17T23:21:22.577Z,97.10
2018-08-17T23:23:27.588Z,97.00
2018-08-17T23:25:32.857Z,97.10
2018-08-17T23:27:37.894Z,97.20
2018-08-17T23:29:43.358Z,97.60
2018-08-17T23:31:48.285Z,97.90
2018-08-17T23:33:53.652Z,98.30
2018-08-17T23:35:58.800Z,98.40
2018-08-17T23:38:03.838Z,98.70
2018-08-17T23:40:09.809Z,98.70
2018-08-17T23:42:14.950Z,99.00
2018-08-17T23:44:20.070Z,99.00
2018-08-17T23:46:25.194Z,99.00
2018-08-17T23:48:30.349Z,98.70
2018-08-17T23:50:35.661Z,98.90
2018-08-17T23:52:40.694Z,98.80
2018-08-17T23:54:45.950Z,99.10
2018-08-17T23:56:51.078Z,98.90
2018-08-17T23:58:56.319Z,99.00
